createdAt,value
2018-06-19T00:00:21.554Z,1012.75
2018-06-19T00:01:02.084Z,1012.79
2018-06-19T00:01:42.402Z,1012.72
2018-06-19T00:02:22.829Z,1012.73
2018-06-19T00:03:03.163Z,1012.74
2018-06-19T00:03:43.558Z,1012.73
2018-06-19T00:04:24.026Z,1012.75
2018-06-19T00:05:04.437Z,1012.71
2018-06-19T00:05:44.850Z,1012.72
2018-06-19T00:06:25.998Z,1012.73
2018-06-19T00:07:06.357Z,1012.69
2018-06-19T00:07:46.748Z,1012.7
2018-06-19T00:08:27.106Z,1012.68
2018-06-19T00:09:07.543Z,1012.68
2018-06-19T00:09:47.970Z,1012.68
2018-06-19T00:10:28.376Z,1012.67
2018-06-19T00:11:08.773Z,1012.68
2018-06-19T00:11:49.270Z,1012.65
2018-06-19T00:12:29.535Z,1012.67
2018-06-19T00:13:10.037Z,1012.65
2018-06-19T00:13:50.404Z,1012.62
2018-06-19T00:14:30.762Z,1012.66
2018-06-19T00:15:11.238Z,1012.68
2018-06-19T00:15:51.629Z,1012.68
2018-06-19T00:16:32.073Z,1012.68
2018-06-19T00:17:12.402Z,1012.68
2018-06-19T00:17:52.856Z,1012.68
2018-06-19T00:18:33.304Z,1012.72
2018-06-19T00:19:13.677Z,1012.7
2018-06-19T00:19:54.204Z,1012.7
2018-06-19T00:20:34.511Z,1012.72
2018-06-19T00:21:14.873Z,1012.7
2018-06-19T00:21:55.447Z,1012.71
2018-06-19T00:22:35.819Z,1012.72
2018-06-19T00:23:16.284Z,1012.71
2018-06-19T00:23:56.693Z,1012.71
2018-06-19T00:24:37.197Z,1012.72
2018-06-19T00:25:17.480Z,1012.71
2018-06-19T00:25:57.997Z,1012.7
2018-06-19T00:26:38.392Z,1012.69
2018-06-19T00:27:18.724Z,1012.7
2018-06-19T00:27:59.164Z,1012.72
2018-06-19T00:28:39.598Z,1012.68
2018-06-19T00:29:19.956Z,1012.69
2018-06-19T00:30:00.391Z,1012.71
2018-06-19T00:30:40.812Z,1012.71
2018-06-19T00:31:21.250Z,1012.63
2018-06-19T00:32:01.712Z,1012.66
2018-06-19T00:32:41.991Z,1012.65
2018-06-19T00:33:22.540Z,1012.63
2018-06-19T00:34:02.937Z,1012.64
2018-06-19T00:34:43.315Z,1012.62
2018-06-19T00:35:24.272Z,1012.65
2018-06-19T00:36:04.245Z,1012.65
2018-06-19T00:36:44.658Z,1012.64
2018-06-19T00:37:25.075Z,1012.72
2018-06-19T00:38:05.550Z,1012.73
2018-06-19T00:38:45.848Z,1012.71
2018-06-19T00:39:26.325Z,1012.69
2018-06-19T00:40:06.728Z,1012.7
2018-06-19T00:40:47.088Z,1012.65
2018-06-19T00:41:27.560Z,1012.63
2018-06-19T00:42:08.001Z,1012.62
2018-06-19T00:42:48.449Z,1012.58
2018-06-19T00:43:28.902Z,1012.59
2018-06-19T00:44:09.368Z,1012.6
2018-06-19T00:44:49.616Z,1012.6
2018-06-19T00:45:30.097Z,1012.63
2018-06-19T00:46:10.505Z,1012.65
2018-06-19T00:46:51.032Z,1012.58
2018-06-19T00:47:31.434Z,1012.61
2018-06-19T00:48:11.830Z,1012.6
2018-06-19T00:48:52.259Z,1012.58
2018-06-19T00:49:32.742Z,1012.58
2018-06-19T00:50:13.558Z,1012.62
2018-06-19T00:50:53.879Z,1012.6
2018-06-19T00:51:34.293Z,1012.62
2018-06-19T00:52:14.657Z,1012.57
2018-06-19T00:52:55.085Z,1012.58
2018-06-19T00:53:35.602Z,1012.57
2018-06-19T00:54:16.212Z,1012.57
2018-06-19T00:54:56.548Z,1012.52
2018-06-19T00:55:37.004Z,1012.57
2018-06-19T00:56:17.432Z,1012.58
2018-06-19T00:56:57.813Z,1012.58
2018-06-19T00:57:38.259Z,1012.55
2018-06-19T00:58:18.675Z,1012.55
2018-06-19T00:58:59.072Z,1012.6
2018-06-19T00:59:39.507Z,1012.56
2018-06-19T01:00:19.885Z,1012.57
2018-06-19T01:01:00.304Z,1012.59
2018-06-19T01:01:40.657Z,1012.59
2018-06-19T01:02:21.020Z,1012.59
2018-06-19T01:03:01.455Z,1012.68
2018-06-19T01:03:41.927Z,1012.64
2018-06-19T01:04:22.329Z,1012.67
2018-06-19T01:05:02.668Z,1012.65
2018-06-19T01:05:43.090Z,1012.63
2018-06-19T01:06:23.489Z,1012.67
2018-06-19T01:07:03.819Z,1012.73
2018-06-19T01:07:44.262Z,1012.71
2018-06-19T01:08:24.607Z,1012.72
2018-06-19T01:09:05.079Z,1012.69
2018-06-19T01:09:45.476Z,1012.7
2018-06-19T01:10:25.851Z,1012.69
2018-06-19T01:11:06.286Z,1012.71
2018-06-19T01:11:46.778Z,1012.67
2018-06-19T01:12:27.176Z,1012.67
2018-06-19T01:13:07.513Z,1012.7
2018-06-19T01:13:47.928Z,1012.76
2018-06-19T01:14:28.344Z,1012.74
2018-06-19T01:15:08.690Z,1012.74
2018-06-19T01:15:49.203Z,1012.75
2018-06-19T01:16:29.565Z,1012.78
2018-06-19T01:17:09.987Z,1012.79
2018-06-19T01:17:50.392Z,1012.8
2018-06-19T01:18:30.772Z,1012.75
2018-06-19T01:19:11.189Z,1012.76
2018-06-19T01:19:51.550Z,1012.75
2018-06-19T01:20:31.972Z,1012.73
2018-06-19T01:21:12.428Z,1012.74
2018-06-19T01:21:52.773Z,1012.75
2018-06-19T01:22:33.217Z,1012.76
2018-06-19T01:23:13.546Z,1012.76
2018-06-19T01:23:54.029Z,1012.77
2018-06-19T01:24:34.405Z,1012.75
2018-06-19T01:25:14.778Z,1012.74
2018-06-19T01:25:55.189Z,1012.75
2018-06-19T01:26:35.584Z,1012.75
2018-06-19T01:27:15.920Z,1012.71
2018-06-19T01:27:56.408Z,1012.74
2018-06-19T01:28:37.411Z,1012.75
2018-06-19T01:29:17.768Z,1012.74
2018-06-19T01:29:58.220Z,1012.77
2018-06-19T01:30:38.636Z,1012.79
2018-06-19T01:31:18.988Z,1012.77
2018-06-19T01:31:59.452Z,1012.74
2018-06-19T01:32:39.897Z,1012.74
2018-06-19T01:33:20.263Z,1012.72
2018-06-19T01:34:00.703Z,1012.73
2018-06-19T01:34:40.992Z,1012.72
2018-06-19T01:35:21.454Z,1012.71
2018-06-19T01:36:01.891Z,1012.7
2018-06-19T01:36:42.286Z,1012.76
2018-06-19T01:37:22.766Z,1012.72
2018-06-19T01:38:03.157Z,1012.74
2018-06-19T01:38:43.526Z,1012.73
2018-06-19T01:39:23.945Z,1012.72
2018-06-19T01:40:04.300Z,1012.69
2018-06-19T01:40:44.749Z,1012.66
2018-06-19T01:41:25.120Z,1012.65
2018-06-19T01:42:05.537Z,1012.64
2018-06-19T01:42:45.849Z,1012.65
2018-06-19T01:43:26.327Z,1012.64
2018-06-19T01:44:06.734Z,1012.7
2018-06-19T01:44:47.068Z,1012.7
2018-06-19T01:45:27.459Z,1012.7
2018-06-19T01:46:07.873Z,1012.74
2018-06-19T01:46:48.220Z,1012.73
2018-06-19T01:47:28.663Z,1012.74
2018-06-19T01:48:09.121Z,1012.77
2018-06-19T01:48:49.439Z,1012.72
2018-06-19T01:49:29.942Z,1012.72
2018-06-19T01:50:10.265Z,1012.75
2018-06-19T01:50:50.708Z,1012.72
2018-06-19T01:51:31.121Z,1012.71
2018-06-19T01:52:11.527Z,1012.68
2018-06-19T01:52:51.980Z,1012.73
2018-06-19T01:53:32.406Z,1012.69
2018-06-19T01:54:12.739Z,1012.77
2018-06-19T01:54:53.141Z,1012.73
2018-06-19T01:55:33.476Z,1012.76
2018-06-19T01:56:13.948Z,1012.74
2018-06-19T01:56:54.317Z,1012.73
2018-06-19T01:57:34.770Z,1012.69
2018-06-19T01:58:15.142Z,1012.72
2018-06-19T01:58:55.678Z,1012.72
2018-06-19T01:59:36.047Z,1012.71
2018-06-19T02:00:16.531Z,1012.71
2018-06-19T02:00:56.926Z,1012.72
2018-06-19T02:01:37.315Z,1012.7
2018-06-19T02:02:17.632Z,1012.71
2018-06-19T02:04:33.400Z,1012.65
2018-06-19T02:05:13.798Z,1012.64
2018-06-19T02:05:54.197Z,1012.64
2018-06-19T02:06:34.546Z,1012.7
2018-06-19T02:07:14.952Z,1012.66
2018-06-19T02:07:55.380Z,1012.69
2018-06-19T02:08:35.798Z,1012.73
2018-06-19T02:09:16.161Z,1012.76
2018-06-19T02:09:56.593Z,1012.71
2018-06-19T02:10:36.956Z,1012.73
2018-06-19T02:11:17.386Z,1012.71
2018-06-19T02:11:57.938Z,1012.69
2018-06-19T02:12:38.217Z,1012.7
2018-06-19T02:13:18.637Z,1012.71
2018-06-19T02:13:59.028Z,1012.71
2018-06-19T02:14:39.423Z,1012.67
2018-06-19T02:15:19.881Z,1012.69
2018-06-19T02:16:00.276Z,1012.73
2018-06-19T02:16:40.652Z,1012.7
2018-06-19T02:17:21.017Z,1012.68
2018-06-19T02:18:01.422Z,1012.71
2018-06-19T02:18:41.861Z,1012.66
2018-06-19T02:19:22.248Z,1012.71
2018-06-19T02:20:02.657Z,1012.72
2018-06-19T02:20:43.094Z,1012.71
2018-06-19T02:21:23.504Z,1012.75
2018-06-19T02:22:03.924Z,1012.77
2018-06-19T02:22:44.332Z,1012.74
2018-06-19T02:23:24.715Z,1012.76
2018-06-19T02:24:05.151Z,1012.8
2018-06-19T02:24:45.646Z,1012.77
2018-06-19T02:25:25.993Z,1012.78
2018-06-19T02:26:06.400Z,1012.78
2018-06-19T02:26:46.760Z,1012.78
2018-06-19T02:27:27.210Z,1012.79
2018-06-19T02:28:07.606Z,1012.75
2018-06-19T02:28:47.934Z,1012.78
2018-06-19T02:29:28.358Z,1012.8
2018-06-19T02:30:08.740Z,1012.8
2018-06-19T02:30:49.148Z,1012.89
2018-06-19T02:31:29.505Z,1012.85
2018-06-19T02:32:09.904Z,1012.82
2018-06-19T02:32:50.417Z,1012.81
2018-06-19T02:33:30.753Z,1012.85
2018-06-19T02:34:11.116Z,1012.85
2018-06-19T02:34:51.544Z,1012.88
2018-06-19T02:35:31.904Z,1012.89
2018-06-19T02:36:12.288Z,1012.92
2018-06-19T02:36:52.616Z,1012.93
2018-06-19T02:37:33.099Z,1012.9
2018-06-19T02:38:13.487Z,1012.89
2018-06-19T02:38:53.823Z,1012.87
2018-06-19T02:39:34.201Z,1012.87
2018-06-19T02:40:14.689Z,1012.91
2018-06-19T02:40:55.043Z,1012.86
2018-06-19T02:41:35.488Z,1012.89
2018-06-19T02:42:15.898Z,1012.93
2018-06-19T02:42:56.278Z,1012.9
2018-06-19T02:43:36.662Z,1012.89
2018-06-19T02:44:17.066Z,1012.93
2018-06-19T02:44:57.553Z,1012.91
2018-06-19T02:45:37.909Z,1012.87
2018-06-19T02:46:18.374Z,1012.9
2018-06-19T02:46:58.758Z,1012.88
2018-06-19T02:47:39.092Z,1012.89
2018-06-19T02:48:19.545Z,1012.89
2018-06-19T02:48:59.903Z,1012.88
2018-06-19T02:49:40.297Z,1012.91
2018-06-19T02:50:20.744Z,1012.9
2018-06-19T02:51:01.122Z,1012.91
2018-06-19T02:51:41.491Z,1012.93
2018-06-19T02:52:21.924Z,1012.96
2018-06-19T02:53:02.287Z,1012.93
2018-06-19T02:53:42.706Z,1012.95
2018-06-19T02:54:23.107Z,1012.96
2018-06-19T02:55:03.481Z,1013
2018-06-19T02:55:43.891Z,1012.97
2018-06-19T02:56:24.291Z,1013
2018-06-19T02:57:04.672Z,1013.03
2018-06-19T02:57:45.041Z,1013.02
2018-06-19T02:58:25.467Z,1013
2018-06-19T02:59:05.847Z,1013.03
2018-06-19T02:59:46.243Z,1013.08
2018-06-19T03:00:26.781Z,1013.07
2018-06-19T03:01:07.092Z,1013.07
2018-06-19T03:01:47.459Z,1013.08
2018-06-19T03:02:27.883Z,1013.07
2018-06-19T03:03:08.306Z,1013.07
2018-06-19T03:03:48.631Z,1013.11
2018-06-19T03:04:28.998Z,1013.07
2018-06-19T03:05:09.433Z,1013.13
2018-06-19T03:05:49.822Z,1013.13
2018-06-19T03:06:30.206Z,1013.14
2018-06-19T03:07:10.631Z,1013.16
2018-06-19T03:07:51.029Z,1013.18
2018-06-19T03:08:31.428Z,1013.17
2018-06-19T03:09:11.834Z,1013.15
2018-06-19T03:09:52.242Z,1013.19
2018-06-19T03:10:32.633Z,1013.16
2018-06-19T03:11:12.988Z,1013.17
2018-06-19T03:11:53.463Z,1013.18
2018-06-19T03:12:33.883Z,1013.17
2018-06-19T03:13:14.280Z,1013.2
2018-06-19T03:13:54.707Z,1013.21
2018-06-19T03:14:35.020Z,1013.21
2018-06-19T03:15:15.448Z,1013.22
2018-06-19T03:15:55.845Z,1013.22
2018-06-19T03:16:36.208Z,1013.2
2018-06-19T03:17:16.725Z,1013.21
2018-06-19T03:17:57.231Z,1013.19
2018-06-19T03:18:37.630Z,1013.17
2018-06-19T03:19:18.057Z,1013.19
2018-06-19T03:19:58.436Z,1013.19
2018-06-19T03:20:38.867Z,1013.21
2018-06-19T03:21:19.290Z,1013.2
2018-06-19T03:21:59.675Z,1013.19
2018-06-19T03:22:40.117Z,1013.19
2018-06-19T03:23:20.502Z,1013.21
2018-06-19T03:24:00.878Z,1013.2
2018-06-19T03:24:41.287Z,1013.2
2018-06-19T03:25:21.723Z,1013.22
2018-06-19T03:26:02.122Z,1013.22
2018-06-19T03:26:42.582Z,1013.24
2018-06-19T03:27:22.927Z,1013.25
2018-06-19T03:28:03.369Z,1013.26
2018-06-19T03:28:43.797Z,1013.28
2018-06-19T03:29:24.202Z,1013.27
2018-06-19T03:30:04.624Z,1013.28
2018-06-19T03:30:45.017Z,1013.29
2018-06-19T03:31:25.417Z,1013.29
2018-06-19T03:32:05.977Z,1013.33
2018-06-19T03:32:46.339Z,1013.31
2018-06-19T03:33:26.748Z,1013.29
2018-06-19T03:34:07.102Z,1013.27
2018-06-19T03:34:47.564Z,1013.32
2018-06-19T03:35:28.043Z,1013.35
2018-06-19T03:36:08.359Z,1013.32
2018-06-19T03:36:48.841Z,1013.34
2018-06-19T03:37:29.221Z,1013.39
2018-06-19T03:38:09.677Z,1013.35
2018-06-19T03:38:50.049Z,1013.34
2018-06-19T03:39:30.440Z,1013.34
2018-06-19T03:40:10.825Z,1013.32
2018-06-19T03:40:51.310Z,1013.34
2018-06-19T03:41:31.706Z,1013.35
2018-06-19T03:42:12.133Z,1013.33
2018-06-19T03:42:52.451Z,1013.35
2018-06-19T03:43:32.918Z,1013.37
2018-06-19T03:44:13.256Z,1013.34
2018-06-19T03:44:53.746Z,1013.35
2018-06-19T03:45:34.126Z,1013.37
2018-06-19T03:46:14.551Z,1013.4
2018-06-19T03:46:55.044Z,1013.39
2018-06-19T03:47:35.418Z,1013.39
2018-06-19T03:48:15.830Z,1013.4
2018-06-19T03:48:56.287Z,1013.44
2018-06-19T03:49:36.681Z,1013.42
2018-06-19T03:50:16.988Z,1013.4
2018-06-19T03:50:57.434Z,1013.39
2018-06-19T03:51:37.871Z,1013.41
2018-06-19T03:52:18.314Z,1013.35
2018-06-19T03:52:58.715Z,1013.39
2018-06-19T03:53:39.111Z,1013.39
2018-06-19T03:54:19.564Z,1013.38
2018-06-19T03:54:59.913Z,1013.42
2018-06-19T03:55:40.393Z,1013.4
2018-06-19T03:56:20.817Z,1013.42
2018-06-19T03:57:01.232Z,1013.42
2018-06-19T03:57:41.582Z,1013.43
2018-06-19T03:58:21.944Z,1013.44
2018-06-19T03:59:02.403Z,1013.43
2018-06-19T03:59:42.893Z,1013.43
2018-06-19T04:00:23.266Z,1013.43
2018-06-19T04:01:03.751Z,1013.42
2018-06-19T04:01:44.151Z,1013.41
2018-06-19T04:02:24.466Z,1013.43
2018-06-19T04:43:49.926Z,1013.74
2018-06-19T04:44:29.569Z,1013.77
2018-06-19T04:45:10.226Z,1013.79
2018-06-19T04:45:50.388Z,1013.74
2018-06-19T04:46:30.758Z,1013.71
2018-06-19T04:47:11.169Z,1013.76
2018-06-19T04:47:51.731Z,1013.79
2018-06-19T04:48:32.078Z,1013.76
2018-06-19T04:49:12.624Z,1013.83
2018-06-19T04:49:53.286Z,1013.82
2018-06-19T04:50:33.604Z,1013.84
2018-06-19T04:51:14.340Z,1013.77
2018-06-19T04:51:54.958Z,1013.8
2018-06-19T04:55:27.068Z,1013.83
2018-06-19T04:56:08.757Z,1013.83
2018-06-19T04:56:48.825Z,1013.87
2018-06-19T04:57:32.026Z,1013.85
2018-06-19T04:58:15.730Z,1013.87
2018-06-19T04:58:55.875Z,1013.89
2018-06-19T04:59:36.393Z,1013.93
2018-06-19T05:00:16.950Z,1013.86
2018-06-19T05:00:58.484Z,1013.88
2018-06-19T05:01:39.478Z,1013.85
2018-06-19T05:02:20.745Z,1013.83
2018-06-19T05:03:01.270Z,1013.85
2018-06-19T05:03:45.350Z,1013.84
2018-06-19T05:04:26.556Z,1013.83
2018-06-19T05:05:06.949Z,1013.85
2018-06-19T05:05:48.312Z,1013.83
2018-06-19T05:06:28.626Z,1013.84
2018-06-19T05:07:09.697Z,1013.89
2018-06-19T05:07:50.513Z,1013.88
2018-06-19T05:08:31.187Z,1013.9
2018-06-19T05:09:16.944Z,1013.91
2018-06-19T05:09:57.792Z,1013.95
2018-06-19T05:10:38.402Z,1013.96
2018-06-19T05:11:19.843Z,1013.95
2018-06-19T05:12:00.465Z,1013.95
2018-06-19T05:12:42.330Z,1013.94
2018-06-19T05:13:22.950Z,1013.94
2018-06-19T05:14:04.201Z,1013.93
2018-06-19T05:14:44.834Z,1013.94
2018-06-19T05:15:25.261Z,1013.93
2018-06-19T05:16:06.915Z,1013.99
2018-06-19T05:16:47.841Z,1013.97
2018-06-19T05:20:01.711Z,1013.94
2018-06-19T05:20:42.232Z,1013.96
2018-06-19T05:21:23.585Z,1013.95
2018-06-19T05:22:04.280Z,1013.94
2018-06-19T05:22:44.524Z,1013.9
2018-06-19T05:23:26.079Z,1013.91
2018-06-19T05:24:07.670Z,1013.96
2018-06-19T05:24:51.108Z,1013.92
2018-06-19T05:25:31.823Z,1013.9
2018-06-19T05:26:14.108Z,1013.91
2018-06-19T05:26:57.245Z,1013.9
2018-06-19T05:27:39.548Z,1013.89
2018-06-19T05:28:19.822Z,1013.88
2018-06-19T05:29:01.645Z,1013.89
2018-06-19T05:37:01.401Z,1013.88
2018-06-19T05:37:41.074Z,1013.87
2018-06-19T05:38:21.401Z,1013.89
2018-06-19T05:39:03.588Z,1013.86
2018-06-19T05:43:32.634Z,1013.82
2018-06-19T05:44:13.782Z,1013.88
2018-06-19T05:44:54.263Z,1013.86
2018-06-19T05:45:34.953Z,1013.87
2018-06-19T05:46:15.499Z,1013.89
2018-06-19T05:46:55.880Z,1013.9
2018-06-19T05:47:36.267Z,1013.88
2018-06-19T05:48:16.757Z,1013.9
2018-06-19T05:48:57.215Z,1013.91
2018-06-19T05:49:37.729Z,1013.94
2018-06-19T05:50:18.151Z,1013.93
2018-06-19T05:50:59.503Z,1013.93
2018-06-19T05:51:39.120Z,1013.94
2018-06-19T05:52:19.471Z,1013.9
2018-06-19T05:53:00.723Z,1013.96
2018-06-19T05:53:41.312Z,1013.98
2018-06-19T05:54:21.701Z,1013.96
2018-06-19T05:55:02.140Z,1014.01
2018-06-19T05:55:42.511Z,1014
2018-06-19T05:56:23.119Z,1014.02
2018-06-19T05:57:03.466Z,1013.99
2018-06-19T05:57:43.884Z,1014
2018-06-19T05:58:24.310Z,1013.96
2018-06-19T05:59:04.741Z,1014
2018-06-19T05:59:45.167Z,1013.98
2018-06-19T06:00:25.672Z,1014.02
2018-06-19T06:01:06.098Z,1014
2018-06-19T06:01:46.469Z,1014
2018-06-19T06:02:26.919Z,1014.01
2018-06-19T06:03:07.305Z,1014.01
2018-06-19T06:03:47.761Z,1014.03
2018-06-19T06:04:28.242Z,1014.01
2018-06-19T06:05:08.654Z,1014.02
2018-06-19T06:05:49.127Z,1014.04
2018-06-19T06:06:29.606Z,1014.1
2018-06-19T06:07:10.095Z,1014.06
2018-06-19T06:07:51.713Z,1014.06
2018-06-19T06:08:31.321Z,1014.08
2018-06-19T06:09:11.799Z,1014.11
2018-06-19T06:09:52.666Z,1014.05
2018-06-19T06:10:34.074Z,1014.03
2018-06-19T06:11:14.588Z,1014.03
2018-06-19T06:11:55.195Z,1014.06
2018-06-19T06:12:35.726Z,1014.06
2018-06-19T06:13:16.186Z,1014.06
2018-06-19T06:13:56.593Z,1014.04
2018-06-19T06:14:37.480Z,1014.06
2018-06-19T06:15:18.114Z,1014.07
2018-06-19T06:15:58.553Z,1014.08
2018-06-19T06:16:39.007Z,1014.07
2018-06-19T06:17:19.425Z,1014.05
2018-06-19T06:17:59.944Z,1014.1
2018-06-19T06:18:40.438Z,1014.07
2018-06-19T06:19:20.899Z,1014.05
2018-06-19T06:20:01.408Z,1014.07
2018-06-19T06:20:41.930Z,1014.1
2018-06-19T06:21:22.620Z,1014.06
2018-06-19T06:22:03.100Z,1014.06
2018-06-19T06:22:43.488Z,1014.08
2018-06-19T06:23:23.985Z,1014.07
2018-06-19T06:24:04.299Z,1014.08
2018-06-19T06:24:44.794Z,1014.06
2018-06-19T06:25:25.284Z,1014.06
2018-06-19T06:26:05.774Z,1014.05
2018-06-19T06:26:46.341Z,1014.07
2018-06-19T06:27:27.019Z,1014.1
2018-06-19T06:28:07.417Z,1014.1
2018-06-19T06:28:47.866Z,1014.1
2018-06-19T06:29:28.921Z,1014.14
2018-06-19T06:30:11.045Z,1014.16
2018-06-19T06:30:54.442Z,1014.15
2018-06-19T06:34:57.549Z,1014.16
2018-06-19T06:35:37.979Z,1014.19
2018-06-19T06:36:18.397Z,1014.16
2018-06-19T06:36:59.667Z,1014.15
2018-06-19T06:37:40.471Z,1014.17
2018-06-19T06:38:22.120Z,1014.17
2018-06-19T06:39:02.987Z,1014.13
2018-06-19T06:39:46.547Z,1014.16
2018-06-19T06:40:29.658Z,1014.15
2018-06-19T06:44:30.907Z,1014.14
2018-06-19T06:53:26.156Z,1014.19
2018-06-19T06:54:07.590Z,1014.2
2018-06-19T06:54:48.096Z,1014.2
2018-06-19T06:55:29.608Z,1014.19
2018-06-19T06:56:10.602Z,1014.18
2018-06-19T06:56:51.079Z,1014.18
2018-06-19T06:57:31.259Z,1014.18
2018-06-19T06:58:11.975Z,1014.19
2018-06-19T06:58:53.304Z,1014.23
2018-06-19T06:59:33.464Z,1014.21
2018-06-19T07:00:14.510Z,1014.23
2018-06-19T07:00:55.613Z,1014.23
2018-06-19T07:01:35.796Z,1014.23
2018-06-19T07:02:20.674Z,1014.24
2018-06-19T07:03:01.703Z,1014.22
2018-06-19T07:03:42.151Z,1014.22
2018-06-19T07:04:23.619Z,1014.24
2018-06-19T07:05:03.538Z,1014.23
2018-06-19T07:05:44.499Z,1014.25
2018-06-19T07:06:26.104Z,1014.22
2018-06-19T07:07:07.122Z,1014.21
2018-06-19T07:07:47.693Z,1014.2
2018-06-19T07:08:28.858Z,1014.22
2018-06-19T07:09:09.540Z,1014.24
2018-06-19T07:09:50.246Z,1014.24
2018-06-19T07:10:30.710Z,1014.27
2018-06-19T07:11:11.086Z,1014.24
2018-06-19T07:11:51.560Z,1014.26
2018-06-19T07:12:33.163Z,1014.23
2018-06-19T07:13:14.124Z,1014.25
2018-06-19T07:13:54.623Z,1014.26
2018-06-19T07:14:35.039Z,1014.26
2018-06-19T07:15:15.107Z,1014.29
2018-06-19T07:15:55.560Z,1014.28
2018-06-19T07:16:35.921Z,1014.28
2018-06-19T07:17:16.346Z,1014.28
2018-06-19T07:17:56.684Z,1014.3
2018-06-19T07:18:37.252Z,1014.29
2018-06-19T07:19:17.562Z,1014.32
2018-06-19T07:19:59.037Z,1014.3
2018-06-19T07:20:39.517Z,1014.3
2018-06-19T07:21:19.914Z,1014.32
2018-06-19T07:22:00.292Z,1014.33
2018-06-19T07:22:40.723Z,1014.34
2018-06-19T07:23:28.936Z,1014.37
2018-06-19T07:24:08.739Z,1014.38
2018-06-19T07:24:49.226Z,1014.4
2018-06-19T07:25:30.259Z,1014.39
2018-06-19T07:26:11.127Z,1014.4
2018-06-19T07:26:51.778Z,1014.42
2018-06-19T07:27:32.221Z,1014.43
2018-06-19T07:28:13.117Z,1014.43
2018-06-19T07:28:53.592Z,1014.41
2018-06-19T07:36:06.352Z,1014.45
2018-06-19T07:36:47.999Z,1014.49
2018-06-19T07:37:28.915Z,1014.45
2018-06-19T07:38:10.569Z,1014.45
2018-06-19T07:38:50.918Z,1014.44
2018-06-19T07:39:31.473Z,1014.43
2018-06-19T07:40:12.405Z,1014.45
2018-06-19T07:40:53.265Z,1014.46
2018-06-19T07:41:34.249Z,1014.46
2018-06-19T07:42:15.018Z,1014.45
2018-06-19T07:42:55.642Z,1014.44
2018-06-19T07:43:36.893Z,1014.47
2018-06-19T07:44:17.473Z,1014.54
2018-06-19T07:44:58.140Z,1014.49
2018-06-19T07:45:38.717Z,1014.48
2018-06-19T07:46:19.729Z,1014.53
2018-06-19T07:47:01.031Z,1014.55
2018-06-19T07:47:41.541Z,1014.56
2018-06-19T07:48:21.943Z,1014.58
2018-06-19T07:49:03.325Z,1014.48
2018-06-19T07:49:43.708Z,1014.53
2018-06-19T07:50:24.188Z,1014.52
2018-06-19T07:51:05.269Z,1014.5
2018-06-19T07:51:45.369Z,1014.47
2018-06-19T07:52:26.150Z,1014.49
2018-06-19T07:53:10.098Z,1014.51
2018-06-19T07:53:50.854Z,1014.52
2018-06-19T07:54:37.024Z,1014.52
2018-06-19T07:55:18.159Z,1014.51
2018-06-19T07:56:01.067Z,1014.5
2018-06-19T07:56:41.503Z,1014.51
2018-06-19T07:58:47.686Z,1014.55
2018-06-19T07:59:27.753Z,1014.5
2018-06-19T08:00:08.202Z,1014.55
2018-06-19T08:00:49.220Z,1014.5
2018-06-19T08:01:30.089Z,1014.54
2018-06-19T08:05:08.232Z,1014.56
2018-06-19T08:05:56.982Z,1014.5
2018-06-19T08:06:45.709Z,1014.57
2018-06-19T08:07:35.003Z,1014.61
2018-06-19T08:08:22.802Z,1014.57
2018-06-19T08:09:03.972Z,1014.6
2018-06-19T08:09:44.304Z,1014.62
2018-06-19T08:10:24.829Z,1014.61
2018-06-19T08:11:05.261Z,1014.62
2018-06-19T08:11:45.869Z,1014.63
2018-06-19T08:12:26.240Z,1014.59
2018-06-19T08:13:06.869Z,1014.61
2018-06-19T08:13:47.450Z,1014.62
2018-06-19T08:14:28.904Z,1014.6
2018-06-19T08:15:08.592Z,1014.58
2018-06-19T08:15:49.000Z,1014.6
2018-06-19T08:16:29.498Z,1014.62
2018-06-19T08:17:10.056Z,1014.63
2018-06-19T08:17:50.550Z,1014.67
2018-06-19T08:18:30.972Z,1014.64
2018-06-19T08:19:11.460Z,1014.63
2018-06-19T08:19:51.884Z,1014.64
2018-06-19T08:20:32.391Z,1014.68
2018-06-19T08:21:12.777Z,1014.65
2018-06-19T08:21:53.311Z,1014.69
2018-06-19T08:22:33.558Z,1014.67
2018-06-19T08:23:14.071Z,1014.7
2018-06-19T08:23:57.558Z,1014.68
2018-06-19T08:24:44.689Z,1014.69
2018-06-19T08:25:43.761Z,1014.67
2018-06-19T08:26:24.268Z,1014.68
2018-06-19T08:27:04.758Z,1014.69
2018-06-19T08:27:45.152Z,1014.74
2018-06-19T08:28:25.565Z,1014.71
2018-06-19T08:29:05.912Z,1014.75
2018-06-19T08:29:46.422Z,1014.72
2018-06-19T08:30:26.863Z,1014.72
2018-06-19T08:31:07.331Z,1014.76
2018-06-19T08:31:47.749Z,1014.77
2018-06-19T08:32:40.111Z,1014.78
2018-06-19T08:35:42.268Z,1014.71
2018-06-19T08:36:21.347Z,1014.77
2018-06-19T08:37:02.902Z,1014.73
2018-06-19T08:37:42.707Z,1014.75
2018-06-19T08:38:23.264Z,1014.78
2018-06-19T08:39:03.740Z,1014.8
2018-06-19T08:39:44.693Z,1014.81
2018-06-19T08:40:26.467Z,1014.79
2018-06-19T08:41:07.057Z,1014.82
2018-06-19T08:41:47.502Z,1014.78
2018-06-19T08:42:29.082Z,1014.8
2018-06-19T08:43:10.880Z,1014.78
2018-06-19T08:43:52.259Z,1014.84
2018-06-19T08:44:32.915Z,1014.82
2018-06-19T08:45:13.096Z,1014.83
2018-06-19T08:45:54.277Z,1014.78
2018-06-19T08:46:34.934Z,1014.82
2018-06-19T08:47:15.495Z,1014.83
2018-06-19T08:47:56.279Z,1014.83
2018-06-19T08:48:37.071Z,1014.82
2018-06-19T08:49:18.565Z,1014.83
2018-06-19T08:50:00.301Z,1014.81
2018-06-19T08:50:40.077Z,1014.83
2018-06-19T08:51:20.595Z,1014.85
2018-06-19T08:52:02.288Z,1014.84
2018-06-19T08:52:45.203Z,1014.82
2018-06-19T08:53:25.977Z,1014.85
2018-06-19T08:54:06.878Z,1014.87
2018-06-19T08:54:48.298Z,1014.87
2018-06-19T08:55:28.233Z,1014.84
2018-06-19T08:56:09.025Z,1014.88
2018-06-19T08:56:50.453Z,1014.88
2018-06-19T08:57:31.165Z,1014.84
2018-06-19T08:58:12.334Z,1014.87
2018-06-19T08:58:53.189Z,1014.83
2018-06-19T08:59:33.904Z,1014.93
2018-06-19T09:00:17.346Z,1014.89
2018-06-19T09:00:58.016Z,1014.89
2018-06-19T09:01:39.570Z,1014.88
2018-06-19T09:02:20.132Z,1014.93
2018-06-19T09:03:01.413Z,1014.94
2018-06-19T09:03:43.288Z,1014.93
2018-06-19T09:04:23.561Z,1014.88
2018-06-19T09:05:04.259Z,1015.01
2018-06-19T09:05:45.821Z,1014.98
2018-06-19T09:06:26.300Z,1014.99
2018-06-19T09:07:06.962Z,1014.97
2018-06-19T09:07:48.035Z,1014.99
2018-06-19T09:08:29.908Z,1015.01
2018-06-19T09:09:11.146Z,1014.86
2018-06-19T09:09:52.476Z,1015.06
2018-06-19T09:10:34.852Z,1015.03
2018-06-19T09:11:15.263Z,1015.03
2018-06-19T09:11:56.090Z,1015.06
2018-06-19T09:12:37.002Z,1015.05
2018-06-19T09:13:17.589Z,1015.1
2018-06-19T09:13:59.666Z,1015.06
2018-06-19T09:14:42.958Z,1015.13
2018-06-19T09:15:24.465Z,1015.1
2018-06-19T09:16:04.841Z,1015.1
2018-06-19T09:16:45.334Z,1015.05
2018-06-19T09:17:26.937Z,1015.09
2018-06-19T09:18:06.760Z,1015.07
2018-06-19T09:18:47.385Z,1015.05
2018-06-19T09:19:29.165Z,1015.09
2018-06-19T09:20:10.844Z,1015.09
2018-06-19T09:20:52.155Z,1015.09
2018-06-19T09:21:33.282Z,1015.11
2018-06-19T09:22:13.976Z,1015.07
2018-06-19T09:22:56.403Z,1015.11
2018-06-19T09:23:37.064Z,1015.05
2018-06-19T09:24:17.867Z,1015.07
2018-06-19T09:24:58.657Z,1015.07
2018-06-19T09:25:42.061Z,1015.09
2018-06-19T09:26:23.029Z,1015.1
2018-06-19T09:27:05.840Z,1015.1
2018-06-19T09:27:47.813Z,1015.14
2018-06-19T09:28:27.641Z,1015.15
2018-06-19T09:29:09.608Z,1015.16
2018-06-19T09:29:50.316Z,1015.17
2018-06-19T09:30:32.808Z,1015.15
2018-06-19T09:31:13.619Z,1015.15
2018-06-19T09:31:56.695Z,1015.16
2018-06-19T09:32:37.803Z,1015.13
2018-06-19T09:33:19.352Z,1015.1
2018-06-19T09:34:01.313Z,1015.03
2018-06-19T09:34:41.156Z,1015.11
2018-06-19T09:35:22.373Z,1015.11
2018-06-19T09:36:03.412Z,1015.13
2018-06-19T09:36:45.496Z,1015.1
2018-06-19T09:37:26.920Z,1015.13
2018-06-19T09:38:08.811Z,1015.1
2018-06-19T09:38:49.072Z,1015.19
2018-06-19T09:39:30.409Z,1015.14
2018-06-19T09:40:12.151Z,1015.17
2018-06-19T09:40:56.036Z,1015.17
2018-06-19T09:43:17.866Z,1015.16
2018-06-19T09:43:58.398Z,1015.21